Disney Fantasy — C6ZL6 — position and weather

sailwx.info

Track history (hours):
 
Tides and Currents Weather Stations Pressure Air Temp Water Temp Dewpoint Dewpoint Depression Visibility Wind Speed Wind Dir Waves Ship Positions

Disney Fantasy

Last reported at 2017-Dec-17 08:43 UTC. Time now 2017-Dec-17 17:53 UTC.
Position N 25°33' W 079°25'.

Length 340 m; draft 8.6 m.

Type: Passenger vessel. MMSI: 311058700.

Date/timePositionNaut miles runAvg speedWind from/ knotsBaromVisibWave heightAir tempDewpointWater temp
2017-Dec-17 08:43N 25°33' W 079°25'521.3
2017-Dec-17 08:30N 25°38' W 079°25'1021.0
2017-Dec-17 08:00N 25°48' W 079°25'1420.7
2017-Dec-17 07:20N 26°02' W 079°25'720.7
2017-Dec-17 07:00N 26°09' W 079°25'1020.4
2017-Dec-17 06:30N 26°19' W 079°25'  
2017-Dec-11 22:43N 20°40' W 086°51'523.1
2017-Dec-11 22:29N 20°37' W 086°55'613.4
2017-Dec-11 22:00N 20°31' W 086°58'0 0.0
2017-Dec-11 12:27N 20°31' W 086°57'2 4.6
2017-Dec-11 12:01N 20°33' W 086°57'612.6
2017-Dec-11 11:30N 20°38' W 086°54'50818.5
2017-Dec-10 08:03N 25°33' W 079°25'122.3
2017-Dec-10 08:00N 25°34' W 079°25'1122.0
2017-Dec-10 07:30N 25°45' W 079°25'1121.7
2017-Dec-10 07:00N 25°56' W 079°25'1121.4
2017-Dec-10 06:30N 26°07' W 079°25'1020.9
2017-Dec-10 06:00N 26°17' W 079°24'38 0.8
2017-Dec-08 05:45N 25°39' W 079°27'521.1
2017-Dec-08 05:30N 25°34' W 079°29'  
Track history (hours):
 
Tides and Currents Weather Stations Pressure Air Temp Water Temp Dewpoint Dewpoint Depression Visibility Wind Speed Wind Dir Waves Ship Positions

Disney Fantasy

Last reported at 2017-Dec-17 08:43 UTC. Time now 2017-Dec-17 17:53 UTC.
Position N 25°33' W 079°25'.

Length 340 m; draft 8.6 m.

Type: Passenger vessel. MMSI: 311058700.

Date/timePositionNaut miles runAvg speedWind from/ knotsBaromVisibWave heightAir tempDewpointWater temp
2017-Dec-17 08:43N 25°33' W 079°25'521.3
2017-Dec-17 08:30N 25°38' W 079°25'1021.0
2017-Dec-17 08:00N 25°48' W 079°25'1420.7
2017-Dec-17 07:20N 26°02' W 079°25'720.7
2017-Dec-17 07:00N 26°09' W 079°25'1020.4
2017-Dec-17 06:30N 26°19' W 079°25'  
2017-Dec-11 22:43N 20°40' W 086°51'523.1
2017-Dec-11 22:29N 20°37' W 086°55'613.4
2017-Dec-11 22:00N 20°31' W 086°58'0 0.0
2017-Dec-11 12:27N 20°31' W 086°57'2 4.6
2017-Dec-11 12:01N 20°33' W 086°57'612.6
2017-Dec-11 11:30N 20°38' W 086°54'50818.5
2017-Dec-10 08:03N 25°33' W 079°25'122.3
2017-Dec-10 08:00N 25°34' W 079°25'1122.0
2017-Dec-10 07:30N 25°45' W 079°25'1121.7
2017-Dec-10 07:00N 25°56' W 079°25'1121.4
2017-Dec-10 06:30N 26°07' W 079°25'1020.9
2017-Dec-10 06:00N 26°17' W 079°24'38 0.8
2017-Dec-08 05:45N 25°39' W 079°27'521.1
2017-Dec-08 05:30N 25°34' W 079°29'  

Dump ship's entire track history